sensor_id;sensor_type;location;lat;lon;timestamp;temperature;humidity
6260;DHT22;3163;51.516;4.000;2022-08-04T00:00:06;25.30;99.90
6260;DHT22;3163;51.516;4.000;2022-08-04T00:10:53;25.30;99.90
6260;DHT22;3163;51.516;4.000;2022-08-04T00:13:24;25.30;99.90
6260;DHT22;3163;51.516;4.000;2022-08-04T00:15:58;25.30;99.90
6260;DHT22;3163;51.516;4.000;2022-08-04T00:18:33;25.20;99.90
6260;DHT22;3163;51.516;4.000;2022-08-04T00:21:04;25.20;99.90
6260;DHT22;3163;51.516;4.000;2022-08-04T00:23:33;25.20;99.90
6260;DHT22;3163;51.516;4.000;2022-08-04T00:25:59;25.20;99.90
6260;DHT22;3163;51.516;4.000;2022-08-04T00:28:26;25.10;99.90
6260;DHT22;3163;51.516;4.000;2022-08-04T00:30:53;25.10;99.90
6260;DHT22;3163;51.516;4.000;2022-08-04T00:33:19;25.10;99.90
6260;DHT22;3163;51.516;4.000;2022-08-04T00:35:47;25.10;99.90
6260;DHT22;3163;51.516;4.000;2022-08-04T00:38:15;25.00;99.90
6260;DHT22;3163;51.516;4.000;2022-08-04T00:43:38;25.00;99.90
6260;DHT22;3163;51.516;4.000;2022-08-04T00:46:14;25.00;99.90
6260;DHT22;3163;51.516;4.000;2022-08-04T00:49:20;25.00;99.90
6260;DHT22;3163;51.516;4.000;2022-08-04T00:57:49;25.00;99.90
6260;DHT22;3163;51.516;4.000;2022-08-04T01:00:17;25.00;99.90
6260;DHT22;3163;51.516;4.000;2022-08-04T01:03:07;25.00;99.90
6260;DHT22;3163;51.516;4.000;2022-08-04T01:14:26;24.90;99.90
6260;DHT22;3163;51.516;4.000;2022-08-04T01:17:00;24.90;99.90
6260;DHT22;3163;51.516;4.000;2022-08-04T01:30:08;24.90;99.90
6260;DHT22;3163;51.516;4.000;2022-08-04T01:32:39;24.80;99.90
6260;DHT22;3163;51.516;4.000;2022-08-04T01:35:15;24.80;99.90
6260;DHT22;3163;51.516;4.000;2022-08-04T01:40:52;24.80;99.90
6260;DHT22;3163;51.516;4.000;2022-08-04T01:43:23;24.80;99.90
6260;DHT22;3163;51.516;4.000;2022-08-04T01:45:55;24.80;99.90
6260;DHT22;3163;51.516;4.000;2022-08-04T01:48:23;24.70;99.90
6260;DHT22;3163;51.516;4.000;2022-08-04T01:50:51;24.70;99.90
6260;DHT22;3163;51.516;4.000;2022-08-04T01:53:19;24.70;99.90
6260;DHT22;3163;51.516;4.000;2022-08-04T01:55:50;24.70;99.90
6260;DHT22;3163;51.516;4.000;2022-08-04T01:58:18;24.60;99.90
6260;DHT22;3163;51.516;4.000;2022-08-04T02:00:55;24.70;99.90
6260;DHT22;3163;51.516;4.000;2022-08-04T02:03:21;24.70;99.90
6260;DHT22;3163;51.516;4.000;2022-08-04T02:05:49;24.70;99.90
6260;DHT22;3163;51.516;4.000;2022-08-04T02:08:21;24.70;99.90
6260;DHT22;3163;51.516;4.000;2022-08-04T02:16:02;24.60;99.90
6260;DHT22;3163;51.516;4.000;2022-08-04T02:19:37;24.60;99.90
6260;DHT22;3163;51.516;4.000;2022-08-04T02:21:31;24.60;99.90
6260;DHT22;3163;51.516;4.000;2022-08-04T02:24:05;24.60;99.90
6260;DHT22;3163;51.516;4.000;2022-08-04T02:26:33;24.60;99.90
6260;DHT22;3163;51.516;4.000;2022-08-04T02:29:16;24.60;99.90
6260;DHT22;3163;51.516;4.000;2022-08-04T02:31:53;24.60;99.90
6260;DHT22;3163;51.516;4.000;2022-08-04T02:34:42;24.60;99.90
6260;DHT22;3163;51.516;4.000;2022-08-04T02:37:10;24.50;99.90
6260;DHT22;3163;51.516;4.000;2022-08-04T02:39:36;24.50;99.90
6260;DHT22;3163;51.516;4.000;2022-08-04T02:42:04;24.50;99.90
6260;DHT22;3163;51.516;4.000;2022-08-04T02:44:30;24.50;99.90
6260;DHT22;3163;51.516;4.000;2022-08-04T02:46:58;24.50;99.90
6260;DHT22;3163;51.516;4.000;2022-08-04T02:49:25;24.50;99.90
6260;DHT22;3163;51.516;4.000;2022-08-04T02:51:53;24.50;99.90
6260;DHT22;3163;51.516;4.000;2022-08-04T02:54:24;24.50;99.90
6260;DHT22;3163;51.516;4.000;2022-08-04T02:56:51;24.50;99.90
6260;DHT22;3163;51.516;4.000;2022-08-04T02:59:21;24.50;99.90
6260;DHT22;3163;51.516;4.000;2022-08-04T03:01:47;24.50;99.90
6260;DHT22;3163;51.516;4.000;2022-08-04T03:04:24;24.40;99.90
6260;DHT22;3163;51.516;4.000;2022-08-04T03:07:19;24.40;99.90
6260;DHT22;3163;51.516;4.000;2022-08-04T03:13:22;24.40;99.90
6260;DHT22;3163;51.516;4.000;2022-08-04T03:19:45;24.30;99.90
6260;DHT22;3163;51.516;4.000;2022-08-04T03:22:00;24.30;99.90
6260;DHT22;3163;51.516;4.000;2022-08-04T03:30:19;24.30;99.90
6260;DHT22;3163;51.516;4.000;2022-08-04T03:36:45;24.30;99.90
6260;DHT22;3163;51.516;4.000;2022-08-04T03:59:12;24.20;99.90
6260;DHT22;3163;51.516;4.000;2022-08-04T04:04:54;24.20;99.90
6260;DHT22;3163;51.516;4.000;2022-08-04T04:36:18;24.10;99.90
6260;DHT22;3163;51.516;4.000;2022-08-04T04:39:19;24.10;99.90
6260;DHT22;3163;51.516;4.000;2022-08-04T04:42:01;24.10;99.90
6260;DHT22;3163;51.516;4.000;2022-08-04T04:50:17;24.20;99.90
6260;DHT22;3163;51.516;4.000;2022-08-04T04:52:51;24.30;99.90
6260;DHT22;3163;51.516;4.000;2022-08-04T04:55:21;24.30;99.90
6260;DHT22;3163;51.516;4.000;2022-08-04T04:57:52;24.40;99.90
6260;DHT22;3163;51.516;4.000;2022-08-04T05:03:23;24.50;99.90
6260;DHT22;3163;51.516;4.000;2022-08-04T05:06:06;24.50;99.90
6260;DHT22;3163;51.516;4.000;2022-08-04T05:14:05;24.60;99.90
6260;DHT22;3163;51.516;4.000;2022-08-04T05:16:40;24.60;99.90
6260;DHT22;3163;51.516;4.000;2022-08-04T05:22:03;24.70;99.90
6260;DHT22;3163;51.516;4.000;2022-08-04T05:24:33;24.70;99.90
6260;DHT22;3163;51.516;4.000;2022-08-04T05:27:06;24.80;99.90
6260;DHT22;3163;51.516;4.000;2022-08-04T05:29:37;24.80;99.90
6260;DHT22;3163;51.516;4.000;2022-08-04T05:32:11;24.80;99.90
6260;DHT22;3163;51.516;4.000;2022-08-04T05:34:43;24.80;99.90
6260;DHT22;3163;51.516;4.000;2022-08-04T05:37:13;24.90;99.90
6260;DHT22;3163;51.516;4.000;2022-08-04T05:39:51;24.90;99.90
6260;DHT22;3163;51.516;4.000;2022-08-04T05:42:18;24.90;99.90
6260;DHT22;3163;51.516;4.000;2022-08-04T05:44:45;25.00;99.90
6260;DHT22;3163;51.516;4.000;2022-08-04T05:47:12;25.00;99.90
6260;DHT22;3163;51.516;4.000;2022-08-04T05:49:40;25.00;99.90
6260;DHT22;3163;51.516;4.000;2022-08-04T05:52:08;25.00;99.90
6260;DHT22;3163;51.516;4.000;2022-08-04T05:54:34;24.90;99.90
6260;DHT22;3163;51.516;4.000;2022-08-04T05:57:04;24.90;99.90
6260;DHT22;3163;51.516;4.000;2022-08-04T05:59:30;25.00;99.90
6260;DHT22;3163;51.516;4.000;2022-08-04T06:01:58;25.00;99.90
6260;DHT22;3163;51.516;4.000;2022-08-04T06:04:31;25.10;99.90
6260;DHT22;3163;51.516;4.000;2022-08-04T06:06:57;25.10;99.90
6260;DHT22;3163;51.516;4.000;2022-08-04T06:09:23;24.90;99.90
6260;DHT22;3163;51.516;4.000;2022-08-04T06:11:49;24.90;99.90
6260;DHT22;3163;51.516;4.000;2022-08-04T06:14:17;24.80;99.90
6260;DHT22;3163;51.516;4.000;2022-08-04T06:16:45;24.90;99.90
6260;DHT22;3163;51.516;4.000;2022-08-04T06:19:12;25.10;99.90
6260;DHT22;3163;51.516;4.000;2022-08-04T06:21:43;25.10;99.90
6260;DHT22;3163;51.516;4.000;2022-08-04T06:24:13;25.10;99.90
6260;DHT22;3163;51.516;4.000;2022-08-04T06:26:39;25.20;99.90
6260;DHT22;3163;51.516;4.000;2022-08-04T06:29:06;25.30;99.90
6260;DHT22;3163;51.516;4.000;2022-08-04T06:31:43;25.30;99.90
6260;DHT22;3163;51.516;4.000;2022-08-04T06:34:22;25.40;99.90
6260;DHT22;3163;51.516;4.000;2022-08-04T06:36:48;25.40;99.90
6260;DHT22;3163;51.516;4.000;2022-08-04T06:39:14;25.50;99.90
6260;DHT22;3163;51.516;4.000;2022-08-04T06:41:40;25.50;99.90
6260;DHT22;3163;51.516;4.000;2022-08-04T06:44:08;25.50;99.90
6260;DHT22;3163;51.516;4.000;2022-08-04T06:46:36;25.50;99.90
6260;DHT22;3163;51.516;4.000;2022-08-04T06:49:03;25.50;99.90
6260;DHT22;3163;51.516;4.000;2022-08-04T06:51:30;25.50;99.90
6260;DHT22;3163;51.516;4.000;2022-08-04T06:53:57;25.50;99.90
6260;DHT22;3163;51.516;4.000;2022-08-04T06:56:23;25.50;99.90
6260;DHT22;3163;51.516;4.000;2022-08-04T06:58:51;25.50;99.90
6260;DHT22;3163;51.516;4.000;2022-08-04T07:01:19;25.50;99.90
6260;DHT22;3163;51.516;4.000;2022-08-04T07:03:45;25.60;99.90
6260;DHT22;3163;51.516;4.000;2022-08-04T07:06:11;25.60;99.90
6260;DHT22;3163;51.516;4.000;2022-08-04T07:08:38;25.60;99.90
6260;DHT22;3163;51.516;4.000;2022-08-04T07:11:04;25.60;99.90
6260;DHT22;3163;51.516;4.000;2022-08-04T07:13:31;25.60;99.90
6260;DHT22;3163;51.516;4.000;2022-08-04T07:15:58;25.60;99.90
6260;DHT22;3163;51.516;4.000;2022-08-04T07:18:24;25.70;99.90
6260;DHT22;3163;51.516;4.000;2022-08-04T07:20:50;25.70;99.90
6260;DHT22;3163;51.516;4.000;2022-08-04T07:23:22;25.70;99.90
6260;DHT22;3163;51.516;4.000;2022-08-04T07:25:53;25.80;99.90
6260;DHT22;3163;51.516;4.000;2022-08-04T07:28:20;25.90;99.90
6260;DHT22;3163;51.516;4.000;2022-08-04T07:30:47;25.90;99.90
6260;DHT22;3163;51.516;4.000;2022-08-04T07:33:16;26.00;99.90
6260;DHT22;3163;51.516;4.000;2022-08-04T07:35:42;26.10;99.90
6260;DHT22;3163;51.516;4.000;2022-08-04T07:38:08;26.10;99.90
6260;DHT22;3163;51.516;4.000;2022-08-04T07:40:36;26.10;99.90
6260;DHT22;3163;51.516;4.000;2022-08-04T07:43:03;26.30;99.90
6260;DHT22;3163;51.516;4.000;2022-08-04T07:45:29;26.30;99.90
6260;DHT22;3163;51.516;4.000;2022-08-04T07:50:22;26.30;99.90
6260;DHT22;3163;51.516;4.000;2022-08-04T07:52:48;26.40;99.90
6260;DHT22;3163;51.516;4.000;2022-08-04T07:55:14;26.40;99.90
6260;DHT22;3163;51.516;4.000;2022-08-04T07:57:40;26.30;99.90
6260;DHT22;3163;51.516;4.000;2022-08-04T08:00:06;26.40;99.90
6260;DHT22;3163;51.516;4.000;2022-08-04T08:02:33;26.40;99.90
6260;DHT22;3163;51.516;4.000;2022-08-04T08:05:00;26.40;99.90
6260;DHT22;3163;51.516;4.000;2022-08-04T08:07:25;26.40;99.90
6260;DHT22;3163;51.516;4.000;2022-08-04T08:09:51;26.40;99.90
6260;DHT22;3163;51.516;4.000;2022-08-04T08:12:17;26.40;99.90
6260;DHT22;3163;51.516;4.000;2022-08-04T08:14:43;26.40;99.90
6260;DHT22;3163;51.516;4.000;2022-08-04T08:17:11;26.40;99.90
6260;DHT22;3163;51.516;4.000;2022-08-04T08:19:37;26.50;99.90
6260;DHT22;3163;51.516;4.000;2022-08-04T08:22:03;26.60;99.90
6260;DHT22;3163;51.516;4.000;2022-08-04T08:24:30;26.60;99.90
6260;DHT22;3163;51.516;4.000;2022-08-04T08:26:57;26.60;99.90
6260;DHT22;3163;51.516;4.000;2022-08-04T08:29:24;26.70;99.90
6260;DHT22;3163;51.516;4.000;2022-08-04T08:31:50;26.70;99.90
6260;DHT22;3163;51.516;4.000;2022-08-04T08:34:17;26.60;99.90
6260;DHT22;3163;51.516;4.000;2022-08-04T08:36:48;26.60;99.90
6260;DHT22;3163;51.516;4.000;2022-08-04T08:39:27;26.60;99.90
6260;DHT22;3163;51.516;4.000;2022-08-04T08:53:47;26.40;99.90
6260;DHT22;3163;51.516;4.000;2022-08-04T09:08:07;26.40;99.90
6260;DHT22;3163;51.516;4.000;2022-08-04T09:10:40;26.40;99.90
6260;DHT22;3163;51.516;4.000;2022-08-04T09:13:15;26.40;99.90
6260;DHT22;3163;51.516;4.000;2022-08-04T09:18:46;26.50;99.90
6260;DHT22;3163;51.516;4.000;2022-08-04T09:21:30;26.50;99.90
6260;DHT22;3163;51.516;4.000;2022-08-04T09:26:49;26.50;99.90
6260;DHT22;3163;51.516;4.000;2022-08-04T09:29:36;26.40;99.90
6260;DHT22;3163;51.516;4.000;2022-08-04T09:35:39;26.40;99.90
6260;DHT22;3163;51.516;4.000;2022-08-04T09:41:01;26.30;99.90
6260;DHT22;3163;51.516;4.000;2022-08-04T09:44:00;26.50;99.90
6260;DHT22;3163;51.516;4.000;2022-08-04T09:49:42;26.60;99.90
6260;DHT22;3163;51.516;4.000;2022-08-04T09:55:33;26.80;99.90
6260;DHT22;3163;51.516;4.000;2022-08-04T09:58:23;26.80;99.90
6260;DHT22;3163;51.516;4.000;2022-08-04T10:01:03;27.20;99.90
6260;DHT22;3163;51.516;4.000;2022-08-04T10:03:34;27.20;99.90
6260;DHT22;3163;51.516;4.000;2022-08-04T10:08:59;27.10;99.90
6260;DHT22;3163;51.516;4.000;2022-08-04T10:14:51;27.00;99.90
6260;DHT22;3163;51.516;4.000;2022-08-04T10:20:13;27.20;99.90
6260;DHT22;3163;51.516;4.000;2022-08-04T10:23:04;27.20;99.90
6260;DHT22;3163;51.516;4.000;2022-08-04T10:28:30;27.50;99.90
6260;DHT22;3163;51.516;4.000;2022-08-04T10:31:02;27.60;99.90
6260;DHT22;3163;51.516;4.000;2022-08-04T10:33:48;27.60;99.90
6260;DHT22;3163;51.516;4.000;2022-08-04T10:36:17;27.70;99.90
6260;DHT22;3163;51.516;4.000;2022-08-04T10:38:55;27.80;99.90
6260;DHT22;3163;51.516;4.000;2022-08-04T10:47:12;28.20;99.90
6260;DHT22;3163;51.516;4.000;2022-08-04T10:49:47;28.20;99.90
6260;DHT22;3163;51.516;4.000;2022-08-04T10:55:16;28.30;99.90
6260;DHT22;3163;51.516;4.000;2022-08-04T11:00:28;28.70;99.90
6260;DHT22;3163;51.516;4.000;2022-08-04T11:03:19;28.90;99.90
6260;DHT22;3163;51.516;4.000;2022-08-04T11:05:53;29.20;99.90
6260;DHT22;3163;51.516;4.000;2022-08-04T11:10:57;29.30;99.90
6260;DHT22;3163;51.516;4.000;2022-08-04T11:13:24;29.50;99.90
6260;DHT22;3163;51.516;4.000;2022-08-04T11:15:54;29.60;99.90
6260;DHT22;3163;51.516;4.000;2022-08-04T11:18:45;29.90;99.90
6260;DHT22;3163;51.516;4.000;2022-08-04T11:21:17;29.80;99.90
6260;DHT22;3163;51.516;4.000;2022-08-04T11:23:53;29.70;99.90
6260;DHT22;3163;51.516;4.000;2022-08-04T11:26:26;29.70;99.90
6260;DHT22;3163;51.516;4.000;2022-08-04T11:29:03;29.90;99.90
6260;DHT22;3163;51.516;4.000;2022-08-04T11:31:40;30.00;99.90
6260;DHT22;3163;51.516;4.000;2022-08-04T11:34:25;30.10;99.90
6260;DHT22;3163;51.516;4.000;2022-08-04T11:36:58;30.80;99.90
6260;DHT22;3163;51.516;4.000;2022-08-04T11:39:56;30.00;99.90
6260;DHT22;3163;51.516;4.000;2022-08-04T11:42:28;29.90;99.90
6260;DHT22;3163;51.516;4.000;2022-08-04T11:45:14;29.90;99.90
6260;DHT22;3163;51.516;4.000;2022-08-04T11:50:17;30.20;99.90
6260;DHT22;3163;51.516;4.000;2022-08-04T11:52:45;30.20;99.90
6260;DHT22;3163;51.516;4.000;2022-08-04T11:55:14;30.20;99.90
6260;DHT22;3163;51.516;4.000;2022-08-04T11:57:42;30.20;99.90
6260;DHT22;3163;51.516;4.000;2022-08-04T12:00:11;30.10;99.90
6260;DHT22;3163;51.516;4.000;2022-08-04T12:05:31;30.40;99.90
6260;DHT22;3163;51.516;4.000;2022-08-04T12:08:21;30.60;99.90
6260;DHT22;3163;51.516;4.000;2022-08-04T12:13:42;30.60;99.90
6260;DHT22;3163;51.516;4.000;2022-08-04T12:16:24;30.50;99.90
6260;DHT22;3163;51.516;4.000;2022-08-04T12:19:01;30.60;99.90
6260;DHT22;3163;51.516;4.000;2022-08-04T12:21:32;30.70;99.90
6260;DHT22;3163;51.516;4.000;2022-08-04T12:24:05;30.80;99.90
6260;DHT22;3163;51.516;4.000;2022-08-04T12:26:36;31.00;99.90
6260;DHT22;3163;51.516;4.000;2022-08-04T12:29:05;31.00;99.90
6260;DHT22;3163;51.516;4.000;2022-08-04T12:31:42;30.90;99.90
6260;DHT22;3163;51.516;4.000;2022-08-04T12:34:31;31.10;99.90
6260;DHT22;3163;51.516;4.000;2022-08-04T12:37:02;31.10;99.90
6260;DHT22;3163;51.516;4.000;2022-08-04T12:39:29;31.20;99.90
6260;DHT22;3163;51.516;4.000;2022-08-04T12:42:25;31.10;99.90
6260;DHT22;3163;51.516;4.000;2022-08-04T12:44:52;31.10;99.90
6260;DHT22;3163;51.516;4.000;2022-08-04T12:47:23;31.00;99.90
6260;DHT22;3163;51.516;4.000;2022-08-04T12:49:50;30.90;99.90
6260;DHT22;3163;51.516;4.000;2022-08-04T12:52:18;30.70;99.90
6260;DHT22;3163;51.516;4.000;2022-08-04T12:54:45;30.60;99.90
6260;DHT22;3163;51.516;4.000;2022-08-04T12:57:13;30.80;99.90
6260;DHT22;3163;51.516;4.000;2022-08-04T12:59:44;30.90;99.90
6260;DHT22;3163;51.516;4.000;2022-08-04T13:02:30;30.90;99.90
6260;DHT22;3163;51.516;4.000;2022-08-04T13:04:59;31.00;99.90
6260;DHT22;3163;51.516;4.000;2022-08-04T13:07:27;30.90;99.90
6260;DHT22;3163;51.516;4.000;2022-08-04T13:10:04;30.90;99.90
6260;DHT22;3163;51.516;4.000;2022-08-04T13:12:31;30.80;99.90
6260;DHT22;3163;51.516;4.000;2022-08-04T13:15:05;30.80;99.90
6260;DHT22;3163;51.516;4.000;2022-08-04T13:17:58;30.70;99.90
6260;DHT22;3163;51.516;4.000;2022-08-04T13:20:29;30.90;99.90
6260;DHT22;3163;51.516;4.000;2022-08-04T13:23:02;30.90;99.90
6260;DHT22;3163;51.516;4.000;2022-08-04T13:25:29;31.00;99.90
6260;DHT22;3163;51.516;4.000;2022-08-04T13:27:57;30.80;99.90
6260;DHT22;3163;51.516;4.000;2022-08-04T13:30:24;30.80;99.90
6260;DHT22;3163;51.516;4.000;2022-08-04T13:32:59;30.70;99.90
6260;DHT22;3163;51.516;4.000;2022-08-04T13:35:27;30.70;99.90
6260;DHT22;3163;51.516;4.000;2022-08-04T13:37:54;30.60;99.90
6260;DHT22;3163;51.516;4.000;2022-08-04T13:40:24;30.60;99.90
6260;DHT22;3163;51.516;4.000;2022-08-04T13:42:51;30.90;99.90
6260;DHT22;3163;51.516;4.000;2022-08-04T13:45:21;30.80;99.90
6260;DHT22;3163;51.516;4.000;2022-08-04T13:47:49;31.10;99.90
6260;DHT22;3163;51.516;4.000;2022-08-04T13:50:25;31.00;99.90
6260;DHT22;3163;51.516;4.000;2022-08-04T13:52:53;31.00;99.90
6260;DHT22;3163;51.516;4.000;2022-08-04T13:57:52;31.20;99.90
6260;DHT22;3163;51.516;4.000;2022-08-04T14:00:18;31.00;99.90
6260;DHT22;3163;51.516;4.000;2022-08-04T14:02:59;30.90;99.90
6260;DHT22;3163;51.516;4.000;2022-08-04T14:05:29;31.10;99.90
6260;DHT22;3163;51.516;4.000;2022-08-04T14:08:07;30.90;99.90
6260;DHT22;3163;51.516;4.000;2022-08-04T14:10:34;30.90;99.90
6260;DHT22;3163;51.516;4.000;2022-08-04T14:13:03;30.70;99.90
6260;DHT22;3163;51.516;4.000;2022-08-04T14:15:42;30.70;99.90
6260;DHT22;3163;51.516;4.000;2022-08-04T14:18:17;30.70;99.90
6260;DHT22;3163;51.516;4.000;2022-08-04T14:23:52;30.70;99.90
6260;DHT22;3163;51.516;4.000;2022-08-04T14:26:33;30.70;99.90
6260;DHT22;3163;51.516;4.000;2022-08-04T14:29:13;30.80;99.90
6260;DHT22;3163;51.516;4.000;2022-08-04T14:31:39;30.50;99.90
6260;DHT22;3163;51.516;4.000;2022-08-04T14:34:08;30.50;99.90
6260;DHT22;3163;51.516;4.000;2022-08-04T14:36:41;30.60;99.90
6260;DHT22;3163;51.516;4.000;2022-08-04T14:39:08;30.50;99.90
6260;DHT22;3163;51.516;4.000;2022-08-04T14:41:47;30.50;99.90
6260;DHT22;3163;51.516;4.000;2022-08-04T14:44:14;30.60;99.90
6260;DHT22;3163;51.516;4.000;2022-08-04T14:46:53;29.50;99.90
6260;DHT22;3163;51.516;4.000;2022-08-04T14:49:21;29.10;99.90
6260;DHT22;3163;51.516;4.000;2022-08-04T14:51:58;29.20;99.90
6260;DHT22;3163;51.516;4.000;2022-08-04T14:54:32;30.10;99.90
6260;DHT22;3163;51.516;4.000;2022-08-04T14:57:02;30.10;99.90
6260;DHT22;3163;51.516;4.000;2022-08-04T14:59:43;30.10;99.90
6260;DHT22;3163;51.516;4.000;2022-08-04T15:02:10;30.10;99.90
6260;DHT22;3163;51.516;4.000;2022-08-04T15:04:38;30.10;99.90
6260;DHT22;3163;51.516;4.000;2022-08-04T15:07:06;29.90;99.90
6260;DHT22;3163;51.516;4.000;2022-08-04T15:09:32;30.10;99.90
6260;DHT22;3163;51.516;4.000;2022-08-04T15:11:58;29.90;99.90
6260;DHT22;3163;51.516;4.000;2022-08-04T15:14:24;29.90;99.90
6260;DHT22;3163;51.516;4.000;2022-08-04T15:16:50;29.70;99.90
6260;DHT22;3163;51.516;4.000;2022-08-04T15:19:16;29.50;99.90
6260;DHT22;3163;51.516;4.000;2022-08-04T15:21:43;29.60;99.90
6260;DHT22;3163;51.516;4.000;2022-08-04T15:24:08;29.30;99.90
6260;DHT22;3163;51.516;4.000;2022-08-04T15:26:46;29.30;99.90
6260;DHT22;3163;51.516;4.000;2022-08-04T15:29:22;29.20;99.90
6260;DHT22;3163;51.516;4.000;2022-08-04T15:31:52;29.20;99.90
6260;DHT22;3163;51.516;4.000;2022-08-04T15:34:19;29.00;99.90
6260;DHT22;3163;51.516;4.000;2022-08-04T15:36:51;29.20;99.90
6260;DHT22;3163;51.516;4.000;2022-08-04T15:39:27;29.40;99.90
6260;DHT22;3163;51.516;4.000;2022-08-04T15:42:09;29.50;99.90
6260;DHT22;3163;51.516;4.000;2022-08-04T15:47:31;29.30;99.90
6260;DHT22;3163;51.516;4.000;2022-08-04T15:55:35;29.60;99.90
6260;DHT22;3163;51.516;4.000;2022-08-04T15:58:07;29.60;99.90
6260;DHT22;3163;51.516;4.000;2022-08-04T16:08:25;29.50;99.90
6260;DHT22;3163;51.516;4.000;2022-08-04T16:10:52;29.00;99.90
6260;DHT22;3163;51.516;4.000;2022-08-04T16:13:20;28.80;99.90
6260;DHT22;3163;51.516;4.000;2022-08-04T16:15:54;28.70;99.90
6260;DHT22;3163;51.516;4.000;2022-08-04T16:21:03;28.40;99.90
6260;DHT22;3163;51.516;4.000;2022-08-04T16:37:07;27.80;99.90
6260;DHT22;3163;51.516;4.000;2022-08-04T16:39:34;27.80;99.90
6260;DHT22;3163;51.516;4.000;2022-08-04T16:42:00;27.90;99.90
6260;DHT22;3163;51.516;4.000;2022-08-04T16:50:15;27.60;99.90
6260;DHT22;3163;51.516;4.000;2022-08-04T16:52:52;27.60;99.90
6260;DHT22;3163;51.516;4.000;2022-08-04T16:55:20;27.60;99.90
6260;DHT22;3163;51.516;4.000;2022-08-04T16:57:50;27.50;99.90
6260;DHT22;3163;51.516;4.000;2022-08-04T17:00:16;27.40;99.90
6260;DHT22;3163;51.516;4.000;2022-08-04T17:02:43;27.40;99.90
6260;DHT22;3163;51.516;4.000;2022-08-04T17:05:22;27.20;99.90
6260;DHT22;3163;51.516;4.000;2022-08-04T17:07:55;27.10;99.90
6260;DHT22;3163;51.516;4.000;2022-08-04T17:10:31;27.10;99.90
6260;DHT22;3163;51.516;4.000;2022-08-04T17:12:56;27.10;99.90
6260;DHT22;3163;51.516;4.000;2022-08-04T17:15:24;27.20;99.90
6260;DHT22;3163;51.516;4.000;2022-08-04T17:17:50;27.10;99.90
6260;DHT22;3163;51.516;4.000;2022-08-04T17:20:15;27.00;99.90
6260;DHT22;3163;51.516;4.000;2022-08-04T17:22:42;27.10;99.90
6260;DHT22;3163;51.516;4.000;2022-08-04T17:25:08;27.00;99.90
6260;DHT22;3163;51.516;4.000;2022-08-04T17:27:35;26.90;99.90
6260;DHT22;3163;51.516;4.000;2022-08-04T17:30:01;26.90;99.90
6260;DHT22;3163;51.516;4.000;2022-08-04T17:32:29;26.90;99.90
6260;DHT22;3163;51.516;4.000;2022-08-04T17:34:58;26.90;99.90
6260;DHT22;3163;51.516;4.000;2022-08-04T17:37:25;27.00;99.90
6260;DHT22;3163;51.516;4.000;2022-08-04T17:39:51;26.90;99.90
6260;DHT22;3163;51.516;4.000;2022-08-04T17:42:28;26.80;99.90
6260;DHT22;3163;51.516;4.000;2022-08-04T17:45:10;26.90;99.90
6260;DHT22;3163;51.516;4.000;2022-08-04T17:47:48;26.80;99.90
6260;DHT22;3163;51.516;4.000;2022-08-04T17:50:26;26.90;99.90
6260;DHT22;3163;51.516;4.000;2022-08-04T17:53:03;26.70;99.90
6260;DHT22;3163;51.516;4.000;2022-08-04T17:55:44;26.70;99.90
6260;DHT22;3163;51.516;4.000;2022-08-04T18:00:40;26.60;99.90
6260;DHT22;3163;51.516;4.000;2022-08-04T18:03:05;26.70;99.90
6260;DHT22;3163;51.516;4.000;2022-08-04T18:05:31;26.60;99.90
6260;DHT22;3163;51.516;4.000;2022-08-04T18:08:05;26.60;99.90
6260;DHT22;3163;51.516;4.000;2022-08-04T18:10:39;26.70;99.90
6260;DHT22;3163;51.516;4.000;2022-08-04T18:13:06;26.70;99.90
6260;DHT22;3163;51.516;4.000;2022-08-04T18:15:32;26.70;99.90
6260;DHT22;3163;51.516;4.000;2022-08-04T18:17:57;26.60;99.90
6260;DHT22;3163;51.516;4.000;2022-08-04T18:20:24;26.60;99.90
6260;DHT22;3163;51.516;4.000;2022-08-04T18:22:52;26.60;99.90
6260;DHT22;3163;51.516;4.000;2022-08-04T18:25:19;26.60;99.90
6260;DHT22;3163;51.516;4.000;2022-08-04T18:27:52;26.60;99.90
6260;DHT22;3163;51.516;4.000;2022-08-04T18:30:19;26.50;99.90
6260;DHT22;3163;51.516;4.000;2022-08-04T18:32:46;26.60;99.90
6260;DHT22;3163;51.516;4.000;2022-08-04T18:35:12;26.60;99.90
6260;DHT22;3163;51.516;4.000;2022-08-04T18:37:39;26.60;99.90
6260;DHT22;3163;51.516;4.000;2022-08-04T18:40:06;26.60;99.90
6260;DHT22;3163;51.516;4.000;2022-08-04T18:42:32;26.60;99.90
6260;DHT22;3163;51.516;4.000;2022-08-04T18:44:58;26.60;99.90
6260;DHT22;3163;51.516;4.000;2022-08-04T18:47:26;26.60;99.90
6260;DHT22;3163;51.516;4.000;2022-08-04T18:49:53;26.70;99.90
6260;DHT22;3163;51.516;4.000;2022-08-04T18:52:20;26.70;99.90
6260;DHT22;3163;51.516;4.000;2022-08-04T18:54:46;26.70;99.90
6260;DHT22;3163;51.516;4.000;2022-08-04T18:57:13;26.70;99.90
6260;DHT22;3163;51.516;4.000;2022-08-04T18:59:42;26.80;99.90
6260;DHT22;3163;51.516;4.000;2022-08-04T19:02:07;26.60;99.90
6260;DHT22;3163;51.516;4.000;2022-08-04T19:04:33;26.70;99.90
6260;DHT22;3163;51.516;4.000;2022-08-04T19:06:59;26.60;99.90
6260;DHT22;3163;51.516;4.000;2022-08-04T19:09:25;26.70;99.90
6260;DHT22;3163;51.516;4.000;2022-08-04T19:11:51;26.60;99.90
6260;DHT22;3163;51.516;4.000;2022-08-04T19:14:17;26.60;99.90
6260;DHT22;3163;51.516;4.000;2022-08-04T19:16:48;26.60;99.90
6260;DHT22;3163;51.516;4.000;2022-08-04T19:19:14;26.60;99.90
6260;DHT22;3163;51.516;4.000;2022-08-04T19:21:42;26.60;99.90
6260;DHT22;3163;51.516;4.000;2022-08-04T19:24:08;26.50;99.90
6260;DHT22;3163;51.516;4.000;2022-08-04T19:26:35;26.50;99.90
6260;DHT22;3163;51.516;4.000;2022-08-04T19:29:01;26.50;99.90
6260;DHT22;3163;51.516;4.000;2022-08-04T19:31:27;26.20;99.90
6260;DHT22;3163;51.516;4.000;2022-08-04T19:34:00;26.20;99.90
6260;DHT22;3163;51.516;4.000;2022-08-04T19:36:27;26.20;99.90
6260;DHT22;3163;51.516;4.000;2022-08-04T19:38:54;26.20;99.90
6260;DHT22;3163;51.516;4.000;2022-08-04T19:41:20;26.30;99.90
6260;DHT22;3163;51.516;4.000;2022-08-04T19:43:46;26.40;99.90
6260;DHT22;3163;51.516;4.000;2022-08-04T19:46:12;26.40;99.90
6260;DHT22;3163;51.516;4.000;2022-08-04T19:48:39;26.20;99.90
6260;DHT22;3163;51.516;4.000;2022-08-04T19:51:04;26.10;99.90
6260;DHT22;3163;51.516;4.000;2022-08-04T19:53:33;26.20;99.90
6260;DHT22;3163;51.516;4.000;2022-08-04T19:55:58;26.20;99.90
6260;DHT22;3163;51.516;4.000;2022-08-04T19:58:25;26.10;99.90
6260;DHT22;3163;51.516;4.000;2022-08-04T20:00:51;26.10;99.90
6260;DHT22;3163;51.516;4.000;2022-08-04T20:03:17;26.10;99.90
6260;DHT22;3163;51.516;4.000;2022-08-04T20:05:43;26.10;99.90
6260;DHT22;3163;51.516;4.000;2022-08-04T20:08:10;26.00;99.90
6260;DHT22;3163;51.516;4.000;2022-08-04T20:10:36;26.00;99.90
6260;DHT22;3163;51.516;4.000;2022-08-04T20:13:02;25.90;99.90
6260;DHT22;3163;51.516;4.000;2022-08-04T20:15:29;25.70;99.90
6260;DHT22;3163;51.516;4.000;2022-08-04T20:17:54;25.80;99.90
6260;DHT22;3163;51.516;4.000;2022-08-04T20:20:20;25.70;99.90
6260;DHT22;3163;51.516;4.000;2022-08-04T20:22:45;25.80;99.90
6260;DHT22;3163;51.516;4.000;2022-08-04T20:25:11;25.70;99.90
6260;DHT22;3163;51.516;4.000;2022-08-04T20:27:37;25.70;99.90
6260;DHT22;3163;51.516;4.000;2022-08-04T20:30:03;25.60;99.90
6260;DHT22;3163;51.516;4.000;2022-08-04T20:32:28;25.60;99.90
6260;DHT22;3163;51.516;4.000;2022-08-04T20:34:55;25.50;99.90
6260;DHT22;3163;51.516;4.000;2022-08-04T20:37:23;25.60;99.90
6260;DHT22;3163;51.516;4.000;2022-08-04T20:39:56;25.50;99.90